Time,TemperatureF,DewpointF,PressureIn,WindDirection,WindDirectionDegrees,WindSpeedMPH,WindSpeedGustMPH,Humidity,HourlyPrecipIn,Conditions,Clouds,dailyrainin,SolarRadiationWatts/m^2,SoftwareType,DateUTC
2013-11-02 00:02:00,53.3,42.6,29.99,NW,321,0.0,0.0,67,0.00,RA,,0.00,0.0,WeatherDisplay:10.37,2013-11-02 05:02:00,
2013-11-02 00:07:00,52.3,42.8,29.99,NW,321,0.0,0.0,70,0.00,RA,,0.00,0.0,WeatherDisplay:10.37,2013-11-02 05:07:00,
2013-11-02 00:12:00,51.5,42.8,29.99,NW,321,0.0,0.0,72,0.00,CLR,,0.00,0.0,WeatherDisplay:10.37,2013-11-02 05:12:00,
2013-11-02 00:17:00,50.8,42.8,30.00,NW,321,0.0,0.0,74,0.00,CLR,,0.00,0.0,WeatherDisplay:10.37,2013-11-02 05:17:00,
2013-11-02 00:22:00,50.6,43.0,30.00,NW,321,0.0,0.0,75,0.00,CLR,,0.00,0.0,WeatherDisplay:10.37,2013-11-02 05:22:00,
2013-11-02 00:27:00,50.3,43.4,30.00,NW,321,0.0,0.0,77,0.00,CLR,,0.00,0.0,WeatherDisplay:10.37,2013-11-02 05:27:00,
2013-11-02 00:32:00,49.5,42.9,30.00,NW,321,0.0,0.0,78,0.00,CLR,,0.00,0.0,WeatherDisplay:10.37,2013-11-02 05:32:00,
2013-11-02 00:37:00,49.0,43.4,30.00,West,260,2.1,2.3,81,0.00,CLR,,0.00,0.0,WeatherDisplay:10.37,2013-11-02 05:37:00,
2013-11-02 00:42:00,48.5,42.6,30.00,WSW,254,0.6,2.3,80,0.00,CLR,,0.00,0.0,WeatherDisplay:10.37,2013-11-02 05:42:00,
2013-11-02 00:47:00,47.9,42.3,30.00,WSW,254,0.0,1.2,81,0.00,CLR,,0.00,0.0,WeatherDisplay:10.37,2013-11-02 05:47:00,
2013-11-02 00:52:00,47.4,42.2,30.00,WSW,254,0.0,0.0,82,0.00,CLR,,0.00,0.0,WeatherDisplay:10.37,2013-11-02 05:52:00,
2013-11-02 00:57:00,47.5,42.6,30.00,WSW,254,0.0,0.0,83,0.00,CLR,,0.00,0.0,WeatherDisplay:10.37,2013-11-02 05:57:00,
2013-11-02 01:02:00,47.6,42.7,30.00,WSW,254,0.0,0.0,83,0.00,CLR,,0.00,0.0,WeatherDisplay:10.37,2013-11-02 06:02:00,
2013-11-02 01:07:00,47.3,42.4,30.00,WSW,254,0.0,0.0,83,0.00,CLR,,0.00,0.0,WeatherDisplay:10.37,2013-11-02 06:07:00,
2013-11-02 01:12:00,47.0,42.4,30.00,WSW,254,0.0,0.0,84,0.00,CLR,,0.00,0.0,WeatherDisplay:10.37,2013-11-02 06:12:00,
2013-11-02 01:17:00,46.5,41.9,30.00,WSW,254,0.0,0.0,84,0.00,CLR,,0.00,0.0,WeatherDisplay:10.37,2013-11-02 06:17:00,
2013-11-02 01:22:00,46.4,42.4,30.00,WSW,254,0.0,0.0,86,0.00,CLR,,0.00,0.0,WeatherDisplay:10.37,2013-11-02 06:22:00,
2013-11-02 01:27:00,46.7,42.1,30.00,WSW,254,0.0,0.0,84,0.00,CLR,,0.00,0.0,WeatherDisplay:10.37,2013-11-02 06:27:00,
2013-11-02 01:32:00,46.5,41.9,30.01,WSW,254,0.0,0.0,84,0.00,CLR,,0.00,0.0,WeatherDisplay:10.37,2013-11-02 06:32:00,
2013-11-02 01:37:00,46.5,42.5,30.01,WSW,254,0.4,1.3,86,0.00,CLR,,0.00,0.0,WeatherDisplay:10.37,2013-11-02 06:37:00,
2013-11-02 01:42:00,46.2,41.9,30.01,WSW,254,0.0,0.0,85,0.00,CLR,,0.00,0.0,WeatherDisplay:10.37,2013-11-02 06:42:00,
2013-11-02 01:47:00,45.7,41.8,30.00,WSW,254,0.0,0.0,86,0.00,CLR,,0.00,0.0,WeatherDisplay:10.37,2013-11-02 06:47:00,
2013-11-02 01:52:00,45.3,41.7,30.00,WSW,254,0.0,0.0,87,0.00,CLR,,0.00,0.0,WeatherDisplay:10.37,2013-11-02 06:52:00,
2013-11-02 01:57:00,44.8,41.2,30.01,WSW,254,0.0,0.0,87,0.00,CLR,,0.00,0.0,WeatherDisplay:10.37,2013-11-02 06:57:00,
2013-11-02 02:02:00,44.5,41.2,30.01,WSW,254,0.0,0.0,88,0.00,CLR,,0.00,0.0,WeatherDisplay:10.37,2013-11-02 07:02:00,
2013-11-02 02:07:00,44.4,41.1,30.01,WSW,254,0.0,0.0,88,0.00,CLR,,0.00,0.0,WeatherDisplay:10.37,2013-11-02 07:07:00,
2013-11-02 02:12:00,44.2,41.2,30.01,WSW,254,0.0,0.0,89,0.00,CLR,,0.00,0.0,WeatherDisplay:10.37,2013-11-02 07:12:00,
2013-11-02 02:17:00,44.0,41.0,30.01,WSW,254,0.0,0.0,89,0.00,CLR,,0.00,0.0,WeatherDisplay:10.37,2013-11-02 07:17:00,
2013-11-02 02:22:00,43.7,40.7,30.02,WSW,254,0.0,0.0,89,0.00,CLR,,0.00,0.0,WeatherDisplay:10.37,2013-11-02 07:22:00,
2013-11-02 02:27:00,43.5,40.8,30.02,WSW,254,0.0,0.0,90,0.00,CLR,,0.00,0.0,WeatherDisplay:10.37,2013-11-02 07:27:00,
2013-11-02 02:32:00,43.3,40.6,30.02,WSW,254,0.0,0.0,90,0.00,CLR,,0.00,0.0,WeatherDisplay:10.37,2013-11-02 07:32:00,
2013-11-02 02:37:00,43.3,40.8,30.02,WSW,254,0.0,0.0,91,0.00,CLR,,0.00,0.0,WeatherDisplay:10.37,2013-11-02 07:37:00,
2013-11-02 02:42:00,43.2,40.8,30.02,WSW,254,0.0,0.0,91,0.00,CLR,,0.00,0.0,WeatherDisplay:10.37,2013-11-02 07:42:00,
2013-11-02 02:47:00,43.2,40.8,30.02,WSW,254,0.0,0.0,91,0.00,CLR,,0.00,0.0,WeatherDisplay:10.37,2013-11-02 07:47:00,
2013-11-02 02:52:00,43.1,40.7,30.02,WSW,254,0.0,0.0,91,0.00,CLR,,0.00,0.0,WeatherDisplay:10.37,2013-11-02 07:52:00,
2013-11-02 02:57:00,43.1,40.7,30.02,WSW,254,0.0,0.0,91,0.00,CLR,,0.00,0.0,WeatherDisplay:10.37,2013-11-02 07:57:00,
2013-11-02 03:02:00,43.3,40.8,30.02,WSW,254,0.0,0.0,91,0.00,CLR,,0.00,0.0,WeatherDisplay:10.37,2013-11-02 08:02:00,
2013-11-02 03:07:00,43.3,40.8,30.02,WSW,254,0.0,0.0,91,0.00,CLR,,0.00,0.0,WeatherDisplay:10.37,2013-11-02 08:07:00,
2013-11-02 03:12:00,43.2,41.0,30.02,WSW,254,2.9,3.5,92,0.00,CLR,,0.00,0.0,WeatherDisplay:10.37,2013-11-02 08:12:00,
2013-11-02 03:17:00,43.3,41.1,30.02,WSW,254,0.0,0.0,92,0.00,CLR,,0.00,0.0,WeatherDisplay:10.37,2013-11-02 08:17:00,
2013-11-02 03:22:00,43.0,40.8,30.02,WSW,254,0.0,0.0,92,0.00,CLR,,0.00,0.0,WeatherDisplay:10.37,2013-11-02 08:22:00,
2013-11-02 03:27:00,42.6,40.2,30.02,WSW,254,0.0,0.0,91,0.00,CLR,,0.00,0.0,WeatherDisplay:10.37,2013-11-02 08:27:00,
2013-11-02 03:32:00,42.0,39.6,30.02,WSW,254,0.0,1.2,91,0.00,CLR,,0.00,0.0,WeatherDisplay:10.37,2013-11-02 08:32:00,
2013-11-02 03:37:00,42.2,40.0,30.02,WSW,254,0.0,0.0,92,0.00,CLR,,0.00,0.0,WeatherDisplay:10.37,2013-11-02 08:37:00,
2013-11-02 03:42:00,42.5,40.3,30.03,WSW,254,0.0,0.0,92,0.00,CLR,,0.00,0.0,WeatherDisplay:10.37,2013-11-02 08:42:00,
2013-11-02 03:47:00,42.7,40.5,30.03,WSW,254,0.0,0.0,92,0.00,CLR,,0.00,0.0,WeatherDisplay:10.37,2013-11-02 08:47:00,
2013-11-02 03:52:00,42.6,40.4,30.03,WSW,254,0.0,0.0,92,0.00,CLR,,0.00,0.0,WeatherDisplay:10.37,2013-11-02 08:52:00,
2013-11-02 03:57:00,42.3,40.1,30.03,WSW,254,0.0,0.0,92,0.00,CLR,,0.00,0.0,WeatherDisplay:10.37,2013-11-02 08:57:00,
2013-11-02 04:02:00,42.1,39.9,30.03,WSW,254,0.0,0.0,92,0.00,CLR,,0.00,0.0,WeatherDisplay:10.37,2013-11-02 09:02:00,
2013-11-02 04:07:00,41.8,39.4,30.04,WSW,254,0.0,0.0,91,0.00,CLR,,0.00,0.0,WeatherDisplay:10.37,2013-11-02 09:07:00,
2013-11-02 04:12:00,41.7,39.5,30.03,WSW,254,0.0,0.0,92,0.00,CLR,,0.00,0.0,WeatherDisplay:10.37,2013-11-02 09:12:00,
2013-11-02 04:17:00,41.9,39.7,30.03,WSW,254,0.0,0.0,92,0.00,CLR,,0.00,0.0,WeatherDisplay:10.37,2013-11-02 09:17:00,
2013-11-02 04:22:00,41.8,39.6,30.04,WSW,254,0.0,0.0,92,0.00,CLR,,0.00,0.0,WeatherDisplay:10.37,2013-11-02 09:22:00,
2013-11-02 04:27:00,41.9,39.7,30.04,West,267,0.0,0.0,92,0.00,CLR,,0.00,0.0,WeatherDisplay:10.37,2013-11-02 09:27:00,
2013-11-02 04:32:00,42.2,40.0,30.04,West,267,0.0,0.0,92,0.00,CLR,,0.00,0.0,WeatherDisplay:10.37,2013-11-02 09:32:00,
2013-11-02 04:37:00,42.3,40.1,30.04,NW,304,0.0,2.3,92,0.00,CLR,,0.00,0.0,WeatherDisplay:10.37,2013-11-02 09:37:00,
2013-11-02 04:42:00,42.3,40.1,30.05,NW,304,0.0,0.0,92,0.00,CLR,,0.00,0.0,WeatherDisplay:10.37,2013-11-02 09:42:00,
2013-11-02 04:47:00,42.1,39.9,30.05,NW,304,0.0,0.0,92,0.00,CLR,,0.00,0.0,WeatherDisplay:10.37,2013-11-02 09:47:00,
2013-11-02 04:52:00,42.3,40.1,30.05,WNW,297,0.6,0.0,92,0.00,CLR,,0.00,0.0,WeatherDisplay:10.37,2013-11-02 09:52:00,
2013-11-02 04:57:00,42.3,40.1,30.05,WNW,297,0.0,0.0,92,0.00,CLR,,0.00,0.0,WeatherDisplay:10.37,2013-11-02 09:57:00,
2013-11-02 05:02:00,42.5,40.3,30.05,West,273,0.0,2.3,92,0.00,CLR,,0.00,0.0,WeatherDisplay:10.37,2013-11-02 10:02:00,
2013-11-02 05:07:00,42.1,39.7,30.06,North,355,0.0,3.5,91,0.00,CLR,,0.00,0.0,WeatherDisplay:10.37,2013-11-02 10:07:00,
2013-11-02 05:12:00,41.9,39.5,30.06,North,350,0.0,3.0,91,0.00,CLR,,0.00,0.0,WeatherDisplay:10.37,2013-11-02 10:12:00,
2013-11-02 05:17:00,41.8,39.4,30.06,North,355,0.0,0.0,91,0.00,CLR,,0.00,0.0,WeatherDisplay:10.37,2013-11-02 10:17:00,
2013-11-02 05:22:00,42.0,39.6,30.06,North,355,0.0,0.0,91,0.00,CLR,,0.00,0.0,WeatherDisplay:10.37,2013-11-02 10:22:00,
2013-11-02 05:27:00,41.9,39.5,30.06,North,355,0.0,1.0,91,0.00,CLR,,0.00,0.0,WeatherDisplay:10.37,2013-11-02 10:27:00,
2013-11-02 05:32:00,42.3,39.8,30.06,WNW,287,1.0,3.0,91,0.00,CLR,,0.00,0.0,WeatherDisplay:10.37,2013-11-02 10:32:00,
2013-11-02 05:37:00,43.1,40.6,30.06,SW,226,1.0,4.0,91,0.00,CLR,,0.00,0.0,WeatherDisplay:10.37,2013-11-02 10:37:00,
2013-11-02 05:42:00,43.6,40.6,30.07,SW,223,0.0,1.0,89,0.00,CLR,,0.00,0.0,WeatherDisplay:10.37,2013-11-02 10:42:00,
2013-11-02 05:47:00,43.8,40.2,30.07,SW,221,0.0,1.0,87,0.00,CLR,,0.00,0.0,WeatherDisplay:10.37,2013-11-02 10:47:00,
2013-11-02 05:52:00,44.2,40.0,30.07,SW,221,0.0,3.0,85,0.00,CLR,,0.00,0.0,WeatherDisplay:10.37,2013-11-02 10:52:00,
2013-11-02 05:57:00,44.1,39.9,30.07,SW,221,0.0,0.0,85,0.00,CLR,,0.00,0.0,WeatherDisplay:10.37,2013-11-02 10:57:00,
2013-11-02 06:02:00,43.9,39.7,30.07,SW,221,0.0,0.0,85,0.00,CLR,,0.00,0.0,WeatherDisplay:10.37,2013-11-02 11:02:00,
2013-11-02 06:07:00,43.4,39.2,30.07,SW,221,0.0,3.0,85,0.00,CLR,,0.00,0.0,WeatherDisplay:10.37,2013-11-02 11:07:00,
2013-11-02 06:12:00,43.1,39.5,30.08,SSW,212,1.0,3.0,87,0.00,CLR,,0.00,0.0,WeatherDisplay:10.37,2013-11-02 11:12:00,
2013-11-02 06:17:00,42.9,39.3,30.08,SSW,208,0.0,1.0,87,0.00,CLR,,0.00,0.0,WeatherDisplay:10.37,2013-11-02 11:17:00,
2013-11-02 06:22:00,42.7,39.1,30.08,SSW,210,0.0,1.0,87,0.00,CLR,,0.00,0.0,WeatherDisplay:10.37,2013-11-02 11:22:00,
2013-11-02 06:27:00,42.2,38.6,30.08,SSW,210,0.0,1.0,87,0.00,CLR,,0.00,0.0,WeatherDisplay:10.37,2013-11-02 11:27:00,
2013-11-02 06:32:00,41.9,38.9,30.08,SSW,209,0.0,0.0,89,0.00,CLR,,0.00,0.0,WeatherDisplay:10.37,2013-11-02 11:32:00,
2013-11-02 06:37:00,41.8,38.5,30.09,SSW,210,0.0,0.0,88,0.00,CLR,,0.00,0.0,WeatherDisplay:10.37,2013-11-02 11:37:00,
2013-11-02 06:42:00,41.6,38.6,30.09,SSW,210,0.0,0.0,89,0.00,CLR,,0.00,0.0,WeatherDisplay:10.37,2013-11-02 11:42:00,
2013-11-02 06:47:00,41.5,38.5,30.09,SSW,209,0.0,0.0,89,0.00,CLR,,0.00,0.0,WeatherDisplay:10.37,2013-11-02 11:47:00,
2013-11-02 06:52:00,41.7,38.7,30.10,SSW,210,0.0,0.0,89,0.00,CLR,,0.00,0.0,WeatherDisplay:10.37,2013-11-02 11:52:00,
2013-11-02 06:57:00,42.0,38.7,30.10,SSW,210,0.0,0.0,88,0.00,CLR,,0.00,0.0,WeatherDisplay:10.37,2013-11-02 11:57:00,
2013-11-02 07:02:00,42.7,38.5,30.10,SSW,210,0.0,1.0,85,0.00,CLR,,0.00,0.0,WeatherDisplay:10.37,2013-11-02 12:02:00,
2013-11-02 07:07:00,42.7,38.5,30.10,SSW,210,0.0,0.0,85,0.00,CLR,,0.00,0.0,WeatherDisplay:10.37,2013-11-02 12:07:00,
2013-11-02 07:12:00,42.6,38.1,30.10,SSW,210,0.0,0.0,84,0.00,CLR,,0.00,0.0,WeatherDisplay:10.37,2013-11-02 12:12:00,
2013-11-02 07:17:00,42.8,38.3,30.10,SSW,210,1.0,3.0,84,0.00,CLR,,0.00,0.0,WeatherDisplay:10.37,2013-11-02 12:17:00,
2013-11-02 07:22:00,43.0,38.2,30.10,SSW,210,0.0,1.0,83,0.00,CLR,,0.00,0.0,WeatherDisplay:10.37,2013-11-02 12:22:00,
2013-11-02 07:27:00,42.9,38.1,30.10,SSW,211,0.0,3.0,83,0.00,CLR,,0.00,0.0,WeatherDisplay:10.37,2013-11-02 12:27:00,
2013-11-02 07:32:00,42.9,38.4,30.10,SSW,212,0.0,1.0,84,0.00,CLR,,0.00,0.0,WeatherDisplay:10.37,2013-11-02 12:32:00,
2013-11-02 07:37:00,43.1,38.3,30.10,SW,227,1.0,3.0,83,0.00,CLR,,0.00,5.0,WeatherDisplay:10.37,2013-11-02 12:37:00,
2013-11-02 07:42:00,43.3,38.2,30.11,West,268,1.0,6.0,82,0.00,CLR,,0.00,7.0,WeatherDisplay:10.37,2013-11-02 12:42:00,
2013-11-02 07:47:00,43.7,38.6,30.11,WNW,293,2.0,4.0,82,0.00,CLR,,0.00,9.0,WeatherDisplay:10.37,2013-11-02 12:47:00,
2013-11-02 07:52:00,44.1,38.6,30.11,WNW,289,2.0,7.0,81,0.00,CLR,,0.00,11.0,WeatherDisplay:10.37,2013-11-02 12:52:00,
2013-11-02 07:57:00,44.9,38.8,30.11,West,274,2.5,5.8,79,0.00,CLR,,0.00,14.0,WeatherDisplay:10.37,2013-11-02 12:57:00,
2013-11-02 08:02:00,45.3,38.8,30.12,West,267,5.4,7.9,78,0.00,CLR,,0.00,16.0,WeatherDisplay:10.37,2013-11-02 13:02:00,
2013-11-02 08:07:00,45.7,38.9,30.12,NW,309,2.8,6.9,77,0.00,CLR,,0.00,21.0,WeatherDisplay:10.37,2013-11-02 13:07:00,
2013-11-02 08:12:00,46.1,39.0,30.12,West,281,4.0,5.8,76,0.00,CLR,,0.00,19.0,WeatherDisplay:10.37,2013-11-02 13:12:00,
2013-11-02 08:17:00,46.5,39.3,30.12,West,273,1.8,2.6,76,0.00,CLR,,0.00,25.0,WeatherDisplay:10.37,2013-11-02 13:17:00,
2013-11-02 08:22:00,46.9,39.4,30.13,WNW,290,1.0,4.0,75,0.00,CLR,,0.00,30.0,WeatherDisplay:10.37,2013-11-02 13:22:00,
2013-11-02 08:27:00,47.0,39.8,30.13,WNW,296,0.0,1.2,76,0.00,CLR,,0.00,97.0,WeatherDisplay:10.37,2013-11-02 13:27:00,
2013-11-02 08:32:00,47.3,39.8,30.13,WNW,288,1.0,5.8,75,0.00,CLR,,0.00,113.0,WeatherDisplay:10.37,2013-11-02 13:32:00,
2013-11-02 08:37:00,48.1,39.9,30.13,WNW,285,2.0,4.0,73,0.00,CLR,,0.00,132.0,WeatherDisplay:10.37,2013-11-02 13:37:00,
2013-11-02 08:42:00,48.5,40.9,30.13,NW,307,3.0,6.0,75,0.00,CLR,,0.00,149.0,WeatherDisplay:10.37,2013-11-02 13:42:00,
2013-11-02 08:47:00,49.2,41.0,30.13,WNW,302,3.0,6.0,73,0.00,CLR,,0.00,167.0,WeatherDisplay:10.37,2013-11-02 13:47:00,
2013-11-02 08:52:00,49.7,40.7,30.14,WNW,293,2.0,7.0,71,0.00,CLR,,0.00,185.0,WeatherDisplay:10.37,2013-11-02 13:52:00,
2013-11-02 08:57:00,50.1,40.3,30.14,WNW,299,2.0,9.0,69,0.00,CLR,,0.00,204.0,WeatherDisplay:10.37,2013-11-02 13:57:00,
2013-11-02 09:02:00,50.3,41.3,30.14,WNW,296,5.0,8.0,71,0.00,CLR,,0.00,218.0,WeatherDisplay:10.37,2013-11-02 14:02:00,
2013-11-02 09:07:00,50.4,40.6,30.14,WNW,288,3.0,12.0,69,0.00,CLR,,0.00,236.0,WeatherDisplay:10.37,2013-11-02 14:07:00,
2013-11-02 09:12:00,50.6,40.8,30.15,West,268,5.0,7.0,69,0.00,CLR,,0.00,251.0,WeatherDisplay:10.37,2013-11-02 14:12:00,
2013-11-02 09:17:00,50.9,41.1,30.15,West,271,5.9,10.6,69,0.00,CLR,,0.00,267.0,WeatherDisplay:10.37,2013-11-02 14:17:00,
2013-11-02 09:22:00,51.2,41.0,30.15,NNW,332,5.1,6.9,68,0.00,CLR,,0.00,281.0,WeatherDisplay:10.37,2013-11-02 14:22:00,
2013-11-02 09:27:00,51.4,40.0,30.16,NW,305,5.6,6.9,65,0.00,CLR,,0.00,295.0,WeatherDisplay:10.37,2013-11-02 14:27:00,
2013-11-02 09:32:00,51.7,41.1,30.16,WNW,290,4.2,8.1,67,0.00,CLR,,0.00,308.0,WeatherDisplay:10.37,2013-11-02 14:32:00,
2013-11-02 09:37:00,52.0,41.4,30.16,WSW,242,1.8,2.3,67,0.00,CLR,,0.00,323.0,WeatherDisplay:10.37,2013-11-02 14:37:00,
2013-11-02 09:42:00,52.7,42.0,30.16,West,275,3.0,3.5,67,0.00,CLR,,0.00,339.0,WeatherDisplay:10.37,2013-11-02 14:42:00,
2013-11-02 09:47:00,52.6,40.8,30.16,NW,319,5.4,6.9,64,0.00,CLR,,0.00,353.0,WeatherDisplay:10.37,2013-11-02 14:47:00,
2013-11-02 09:52:00,52.7,40.9,30.17,WNW,302,5.8,10.4,64,0.00,CLR,,0.00,369.0,WeatherDisplay:10.37,2013-11-02 14:52:00,
2013-11-02 09:57:00,53.0,40.7,30.17,West,263,6.8,9.2,63,0.00,CLR,,0.00,385.0,WeatherDisplay:10.37,2013-11-02 14:57:00,
2013-11-02 10:02:00,53.2,40.5,30.17,SSW,202,8.8,12.7,62,0.00,CLR,,0.00,396.0,WeatherDisplay:10.37,2013-11-02 15:02:00,
2013-11-02 10:07:00,53.1,40.0,30.17,WNW,284,5.6,8.1,61,0.00,CLR,,0.00,418.0,WeatherDisplay:10.37,2013-11-02 15:07:00,
2013-11-02 10:12:00,53.5,40.4,30.17,WNW,290,6.0,7.9,61,0.00,CLR,,0.00,445.0,WeatherDisplay:10.37,2013-11-02 15:12:00,
2013-11-02 10:17:00,53.8,40.2,30.17,WNW,298,4.8,9.2,60,0.00,CLR,,0.00,452.0,WeatherDisplay:10.37,2013-11-02 15:17:00,
2013-11-02 10:22:00,54.3,40.3,30.17,NW,313,3.0,3.5,59,0.00,CLR,,0.00,410.0,WeatherDisplay:10.37,2013-11-02 15:22:00,
2013-11-02 10:27:00,55.0,40.9,30.17,NW,311,5.2,9.2,59,0.00,CLR,,0.00,471.0,WeatherDisplay:10.37,2013-11-02 15:27:00,
2013-11-02 10:32:00,54.8,39.8,30.17,NW,322,10.9,17.3,57,0.00,CLR,,0.00,480.0,WeatherDisplay:10.37,2013-11-02 15:32:00,
2013-11-02 10:37:00,55.0,40.0,30.17,West,261,8.7,12.7,57,0.00,CLR,,0.00,515.0,WeatherDisplay:10.37,2013-11-02 15:37:00,
2013-11-02 10:42:00,55.2,39.3,30.17,NNW,331,8.1,10.4,55,0.00,CLR,,0.00,513.0,WeatherDisplay:10.37,2013-11-02 15:42:00,
2013-11-02 10:47:00,55.9,40.9,30.17,NNW,332,4.2,5.8,57,0.00,CLR,,0.00,533.0,WeatherDisplay:10.37,2013-11-02 15:47:00,
2013-11-02 10:52:00,56.0,39.6,30.17,WNW,299,9.5,11.5,54,0.00,CLR,,0.00,533.0,WeatherDisplay:10.37,2013-11-02 15:52:00,
2013-11-02 10:57:00,55.6,39.7,30.17,West,276,5.8,15.0,55,0.00,CLR,,0.00,538.0,WeatherDisplay:10.37,2013-11-02 15:57:00,
2013-11-02 11:02:00,56.2,38.3,30.17,WNW,303,10.2,18.4,51,0.00,CLR,,0.00,570.0,WeatherDisplay:10.37,2013-11-02 16:02:00,
2013-11-02 11:07:00,56.1,39.2,30.17,West,269,6.8,10.4,53,0.00,CLR,,0.00,571.0,WeatherDisplay:10.37,2013-11-02 16:07:00,
2013-11-02 11:13:00,56.1,38.2,30.17,WSW,252,9.2,10.4,51,0.00,CLR,,0.00,563.0,WeatherDisplay:10.37,2013-11-02 16:13:00,
2013-11-02 11:18:00,56.3,38.9,30.17,NW,307,5.1,9.2,52,0.00,CLR,,0.00,577.0,WeatherDisplay:10.37,2013-11-02 16:18:00,
2013-11-02 11:23:00,56.8,38.3,30.17,NW,323,11.3,13.2,50,0.00,CLR,,0.00,587.0,WeatherDisplay:10.37,2013-11-02 16:23:00,
2013-11-02 11:28:00,56.9,38.9,30.18,WNW,292,8.4,11.5,51,0.00,CLR,,0.00,582.0,WeatherDisplay:10.37,2013-11-02 16:28:00,
2013-11-02 11:33:00,57.8,38.8,30.18,NW,309,11.2,12.7,49,0.00,CLR,,0.00,605.0,WeatherDisplay:10.37,2013-11-02 16:33:00,
2013-11-02 11:38:00,58.3,38.1,30.18,WNW,284,5.1,11.5,47,0.00,CLR,,0.00,594.0,WeatherDisplay:10.37,2013-11-02 16:38:00,
2013-11-02 11:43:00,58.0,38.4,30.18,West,268,10.3,15.0,48,0.00,CLR,,0.00,606.0,WeatherDisplay:10.37,2013-11-02 16:43:00,
2013-11-02 11:48:00,58.1,38.0,30.18,NW,312,10.9,16.1,47,0.00,CLR,,0.00,615.0,WeatherDisplay:10.37,2013-11-02 16:48:00,
2013-11-02 11:53:00,57.9,37.8,30.18,West,279,6.4,15.0,47,0.00,CLR,,0.00,613.0,WeatherDisplay:10.37,2013-11-02 16:53:00,
2013-11-02 11:58:00,57.5,37.9,30.18,West,281,7.2,9.2,48,0.00,CLR,,0.00,629.0,WeatherDisplay:10.37,2013-11-02 16:58:00,
2013-11-02 12:03:00,58.2,37.5,30.18,NW,324,8.8,9.2,46,0.00,FEW,,0.00,631.0,WeatherDisplay:10.37,2013-11-02 17:03:00,
2013-11-02 12:08:00,58.2,38.1,30.18,WNW,286,6.4,11.9,47,0.00,FEW,,0.00,640.0,WeatherDisplay:10.37,2013-11-02 17:08:00,
2013-11-02 12:13:00,58.6,38.4,30.18,NW,304,7.9,12.7,47,0.00,FEW,,0.00,640.0,WeatherDisplay:10.37,2013-11-02 17:13:00,
2013-11-02 12:18:00,58.7,38.5,30.18,North,355,15.4,18.4,47,0.00,FEW,,0.00,643.0,WeatherDisplay:10.37,2013-11-02 17:18:00,
2013-11-02 12:23:00,59.3,38.5,30.18,WNW,298,9.0,15.0,46,0.00,FEW,,0.00,647.0,WeatherDisplay:10.37,2013-11-02 17:23:00,
2013-11-02 12:28:00,59.2,36.7,30.18,NW,323,9.3,12.7,43,0.00,FEW,,0.00,650.0,WeatherDisplay:10.37,2013-11-02 17:28:00,
2013-11-02 12:33:00,59.4,38.0,30.18,NW,326,8.6,9.2,45,0.00,FEW,,0.00,649.0,WeatherDisplay:10.37,2013-11-02 17:33:00,
2013-11-02 12:38:00,59.8,37.2,30.18,NW,304,8.6,15.0,43,0.00,FEW,,0.00,656.0,WeatherDisplay:10.37,2013-11-02 17:38:00,
2013-11-02 12:43:00,59.5,36.4,30.18,WNW,297,7.6,10.4,42,0.00,FEW,,0.00,659.0,WeatherDisplay:10.37,2013-11-02 17:43:00,
2013-11-02 12:48:00,59.6,36.5,30.18,WNW,298,12.5,16.1,42,0.00,FEW,,0.00,661.0,WeatherDisplay:10.37,2013-11-02 17:48:00,
2013-11-02 12:53:00,59.5,36.4,30.18,West,261,10.6,15.0,42,0.00,FEW,,0.00,670.0,WeatherDisplay:10.37,2013-11-02 17:53:00,
2013-11-02 12:58:00,59.3,36.2,30.18,WNW,295,10.5,12.7,42,0.00,FEW,,0.00,673.0,WeatherDisplay:10.37,2013-11-02 17:58:00,
2013-11-02 13:03:00,60.4,38.9,30.18,NW,311,4.3,6.9,45,0.00,CLR,,0.00,673.0,WeatherDisplay:10.37,2013-11-02 18:03:00,
2013-11-02 13:08:00,60.8,36.9,30.18,WNW,296,7.2,16.1,41,0.00,CLR,,0.00,684.0,WeatherDisplay:10.37,2013-11-02 18:08:00,
2013-11-02 13:13:00,59.1,36.6,30.18,NW,323,7.2,10.4,43,0.00,CLR,,0.00,682.0,WeatherDisplay:10.37,2013-11-02 18:13:00,
2013-11-02 13:18:00,60.2,37.0,30.18,NNW,338,9.8,15.0,42,0.00,CLR,,0.00,679.0,WeatherDisplay:10.37,2013-11-02 18:18:00,
2013-11-02 13:23:00,60.3,36.5,30.18,NNW,331,7.1,12.7,41,0.00,CLR,,0.00,613.0,WeatherDisplay:10.37,2013-11-02 18:23:00,
2013-11-02 13:28:00,60.0,36.2,30.18,West,276,10.9,15.0,41,0.00,CLR,,0.00,686.0,WeatherDisplay:10.37,2013-11-02 18:28:00,
2013-11-02 13:33:00,60.3,37.1,30.17,WNW,300,10.0,10.4,42,0.00,CLR,,0.00,663.0,WeatherDisplay:10.37,2013-11-02 18:33:00,
2013-11-02 13:38:00,60.8,36.3,30.17,West,265,9.1,11.5,40,0.00,CLR,,0.00,666.0,WeatherDisplay:10.37,2013-11-02 18:38:00,
2013-11-02 13:43:00,60.7,37.5,30.17,NNW,336,9.8,11.5,42,0.00,CLR,,0.00,663.0,WeatherDisplay:10.37,2013-11-02 18:43:00,
2013-11-02 13:48:00,60.7,36.2,30.17,WNW,285,8.0,12.7,40,0.00,CLR,,0.00,650.0,WeatherDisplay:10.37,2013-11-02 18:48:00,
2013-11-02 13:53:00,60.9,36.4,30.16,WNW,290,9.8,12.7,40,0.00,CLR,,0.00,647.0,WeatherDisplay:10.37,2013-11-02 18:53:00,
2013-11-02 13:58:00,60.6,37.4,30.16,NW,322,8.7,11.5,42,0.00,CLR,,0.00,543.0,WeatherDisplay:10.37,2013-11-02 18:58:00,
2013-11-02 14:03:00,60.8,38.1,30.16,North,5,8.4,10.4,43,0.00,CLR,,0.00,635.0,WeatherDisplay:10.37,2013-11-02 19:03:00,
2013-11-02 14:08:00,61.1,35.9,30.16,WNW,292,12.8,16.1,39,0.00,CLR,,0.00,582.0,WeatherDisplay:10.37,2013-11-02 19:08:00,
2013-11-02 14:13:00,60.3,36.5,30.16,WNW,303,6.8,14.5,41,0.00,CLR,,0.00,613.0,WeatherDisplay:10.37,2013-11-02 19:13:00,
2013-11-02 14:18:00,60.9,37.6,30.15,NNW,338,9.7,12.7,42,0.00,CLR,,0.00,605.0,WeatherDisplay:10.37,2013-11-02 19:18:00,
2013-11-02 14:23:00,60.9,36.4,30.16,NW,306,14.3,18.4,40,0.00,CLR,,0.00,608.0,WeatherDisplay:10.37,2013-11-02 19:23:00,
2013-11-02 14:28:00,60.8,36.3,30.15,NNW,332,13.0,17.3,40,0.00,CLR,,0.00,592.0,WeatherDisplay:10.37,2013-11-02 19:28:00,
2013-11-02 14:33:00,61.1,37.8,30.15,NW,313,6.4,8.1,42,0.00,CLR,,0.00,610.0,WeatherDisplay:10.37,2013-11-02 19:33:00,
2013-11-02 14:38:00,61.4,36.8,30.15,West,267,8.3,10.4,40,0.00,CLR,,0.00,612.0,WeatherDisplay:10.37,2013-11-02 19:38:00,
2013-11-02 14:43:00,61.2,36.0,30.15,West,266,8.5,10.4,39,0.00,CLR,,0.00,578.0,WeatherDisplay:10.37,2013-11-02 19:43:00,
2013-11-02 14:48:00,61.1,36.6,30.15,NW,319,12.0,16.1,40,0.00,CLR,,0.00,568.0,WeatherDisplay:10.37,2013-11-02 19:48:00,
2013-11-02 14:53:00,61.4,36.2,30.15,NW,310,7.1,10.4,39,0.00,CLR,,0.00,564.0,WeatherDisplay:10.37,2013-11-02 19:53:00,
2013-11-02 14:58:00,61.5,36.9,30.15,NW,304,12.8,17.3,40,0.00,CLR,,0.00,563.0,WeatherDisplay:10.37,2013-11-02 19:58:00,
2013-11-02 15:03:00,61.2,37.3,30.15,WNW,291,4.3,8.1,41,0.00,CLR,,0.00,540.0,WeatherDisplay:10.37,2013-11-02 20:03:00,
2013-11-02 15:08:00,61.1,37.2,30.15,West,278,8.0,11.5,41,0.00,CLR,,0.00,533.0,WeatherDisplay:10.37,2013-11-02 20:08:00,
2013-11-02 15:13:00,61.1,37.8,30.15,NW,313,6.6,9.2,42,0.00,CLR,,0.00,515.0,WeatherDisplay:10.37,2013-11-02 20:13:00,
2013-11-02 15:18:00,60.9,35.8,30.15,NNW,327,5.2,10.4,39,0.00,CLR,,0.00,499.0,WeatherDisplay:10.37,2013-11-02 20:18:00,
2013-11-02 15:23:00,60.9,35.8,30.15,NW,310,9.7,10.4,39,0.00,CLR,,0.00,494.0,WeatherDisplay:10.37,2013-11-02 20:23:00,
2013-11-02 15:28:00,60.4,35.9,30.15,West,279,3.7,5.8,40,0.00,CLR,,0.00,480.0,WeatherDisplay:10.37,2013-11-02 20:28:00,
2013-11-02 15:33:00,60.9,37.6,30.15,North,9,5.0,6.9,42,0.00,CLR,,0.00,464.0,WeatherDisplay:10.37,2013-11-02 20:33:00,
2013-11-02 15:38:00,61.0,35.8,30.15,NW,311,6.7,9.2,39,0.00,CLR,,0.00,357.0,WeatherDisplay:10.37,2013-11-02 20:38:00,
2013-11-02 15:43:00,60.6,35.5,30.15,WNW,284,8.5,11.5,39,0.00,CLR,,0.00,439.0,WeatherDisplay:10.37,2013-11-02 20:43:00,
2013-11-02 15:48:00,60.4,35.9,30.15,NW,318,11.1,17.3,40,0.00,CLR,,0.00,424.0,WeatherDisplay:10.37,2013-11-02 20:48:00,
2013-11-02 15:53:00,60.9,35.8,30.15,NNW,334,10.4,12.7,39,0.00,CLR,,0.00,408.0,WeatherDisplay:10.37,2013-11-02 20:53:00,
2013-11-02 15:58:00,60.6,35.5,30.15,WNW,296,8.8,9.2,39,0.00,CLR,,0.00,390.0,WeatherDisplay:10.37,2013-11-02 20:58:00,
2013-11-02 16:03:00,60.1,35.0,30.15,WNW,294,7.3,11.5,39,0.00,CLR,,0.00,378.0,WeatherDisplay:10.37,2013-11-02 21:03:00,
2013-11-02 16:08:00,60.1,35.0,30.16,NW,324,9.4,10.4,39,0.00,CLR,,0.00,371.0,WeatherDisplay:10.37,2013-11-02 21:08:00,
2013-11-02 16:13:00,60.3,35.9,30.16,NW,304,3.8,9.2,40,0.00,CLR,,0.00,353.0,WeatherDisplay:10.37,2013-11-02 21:13:00,
2013-11-02 16:18:00,60.5,35.4,30.16,West,276,5.6,6.9,39,0.00,CLR,,0.00,338.0,WeatherDisplay:10.37,2013-11-02 21:18:00,
2013-11-02 16:23:00,60.6,35.5,30.16,WNW,290,8.8,11.9,39,0.00,CLR,,0.00,329.0,WeatherDisplay:10.37,2013-11-02 21:23:00,
2013-11-02 16:28:00,60.4,35.3,30.16,WNW,286,7.4,9.2,39,0.00,CLR,,0.00,316.0,WeatherDisplay:10.37,2013-11-02 21:28:00,
2013-11-02 16:33:00,60.1,35.7,30.16,NW,325,4.7,6.9,40,0.00,CLR,,0.00,304.0,WeatherDisplay:10.37,2013-11-02 21:33:00,
2013-11-02 16:38:00,60.2,35.8,30.17,West,267,5.9,9.2,40,0.00,CLR,,0.00,278.0,WeatherDisplay:10.37,2013-11-02 21:38:00,
2013-11-02 16:43:00,59.8,34.8,30.17,WNW,287,6.6,8.1,39,0.00,CLR,,0.00,264.0,WeatherDisplay:10.37,2013-11-02 21:43:00,
2013-11-02 16:48:00,59.5,35.8,30.17,NW,309,2.0,3.5,41,0.00,CLR,,0.00,243.0,WeatherDisplay:10.37,2013-11-02 21:48:00,
2013-11-02 16:53:00,59.5,35.1,30.17,West,275,8.9,10.6,40,0.00,CLR,,0.00,218.0,WeatherDisplay:10.37,2013-11-02 21:53:00,
2013-11-02 16:58:00,59.3,35.6,30.17,WNW,294,4.6,5.8,41,0.00,CLR,,0.00,197.0,WeatherDisplay:10.37,2013-11-02 21:58:00,
2013-11-02 17:03:00,59.2,35.5,30.17,NNW,334,8.5,12.7,41,0.00,CLR,,0.00,179.0,WeatherDisplay:10.37,2013-11-02 22:03:00,
2013-11-02 17:08:00,59.1,35.4,30.17,WNW,286,5.1,6.9,41,0.00,CLR,,0.00,156.0,WeatherDisplay:10.37,2013-11-02 22:08:00,
2013-11-02 17:13:00,59.0,35.3,30.17,West,279,6.9,9.2,41,0.00,CLR,,0.00,141.0,WeatherDisplay:10.37,2013-11-02 22:13:00,
2013-11-02 17:18:00,58.9,35.8,30.17,West,281,3.0,5.8,42,0.00,CLR,,0.00,81.0,WeatherDisplay:10.37,2013-11-02 22:18:00,
2013-11-02 17:23:00,58.8,35.7,30.17,WNW,300,4.1,5.8,42,0.00,CLR,,0.00,95.0,WeatherDisplay:10.37,2013-11-02 22:23:00,
2013-11-02 17:28:00,58.6,35.0,30.17,NW,316,6.9,8.1,41,0.00,CLR,,0.00,88.0,WeatherDisplay:10.37,2013-11-02 22:28:00,
2013-11-02 17:33:00,58.2,35.2,30.17,West,279,3.8,6.9,42,0.00,CLR,,0.00,46.0,WeatherDisplay:10.37,2013-11-02 22:33:00,
2013-11-02 17:38:00,58.1,36.3,30.17,West,272,3.2,5.8,44,0.00,CLR,,0.00,26.0,WeatherDisplay:10.37,2013-11-02 22:38:00,
2013-11-02 17:43:00,57.8,36.0,30.17,WNW,302,2.4,6.9,44,0.00,CLR,,0.00,44.0,WeatherDisplay:10.37,2013-11-02 22:43:00,
2013-11-02 17:48:00,57.5,36.3,30.17,NW,304,1.9,2.6,45,0.00,CLR,,0.00,33.0,WeatherDisplay:10.37,2013-11-02 22:48:00,
2013-11-02 17:53:00,57.1,36.5,30.17,WNW,295,3.4,8.1,46,0.00,CLR,,0.00,23.0,WeatherDisplay:10.37,2013-11-02 22:53:00,
2013-11-02 17:58:00,56.7,36.1,30.17,NW,315,1.3,3.5,46,0.00,CLR,,0.00,16.0,WeatherDisplay:10.37,2013-11-02 22:58:00,
2013-11-02 18:03:00,56.2,36.2,30.17,West,275,1.3,5.8,47,0.00,CLR,,0.00,12.0,WeatherDisplay:10.37,2013-11-02 23:03:00,
2013-11-02 18:08:00,55.9,35.9,30.17,West,277,2.4,4.0,47,0.00,CLR,,0.00,11.0,WeatherDisplay:10.37,2013-11-02 23:08:00,
2013-11-02 18:13:00,55.5,36.1,30.17,WNW,300,0.7,3.5,48,0.00,CLR,,0.00,7.0,WeatherDisplay:10.37,2013-11-02 23:13:00,
2013-11-02 18:18:00,55.0,36.2,30.17,NW,305,2.0,4.0,49,0.00,CLR,,0.00,5.0,WeatherDisplay:10.37,2013-11-02 23:18:00,
2013-11-02 18:23:00,54.6,36.3,30.17,NW,306,0.8,1.3,50,0.00,CLR,,0.00,0.0,WeatherDisplay:10.37,2013-11-02 23:23:00,
2013-11-02 18:28:00,54.1,36.4,30.18,NW,306,0.0,0.0,51,0.00,CLR,,0.00,0.0,WeatherDisplay:10.37,2013-11-02 23:28:00,
2013-11-02 18:33:00,53.6,36.4,30.17,NW,306,1.3,1.3,52,0.00,CLR,,0.00,0.0,WeatherDisplay:10.37,2013-11-02 23:33:00,
2013-11-02 18:38:00,53.2,36.5,30.18,NW,306,1.7,3.5,53,0.00,CLR,,0.00,0.0,WeatherDisplay:10.37,2013-11-02 23:38:00,
2013-11-02 18:43:00,52.8,36.6,30.18,NW,306,1.3,2.3,54,0.00,CLR,,0.00,0.0,WeatherDisplay:10.37,2013-11-02 23:43:00,
2013-11-02 18:48:00,52.4,36.7,30.18,NW,306,1.5,2.3,55,0.00,CLR,,0.00,0.0,WeatherDisplay:10.37,2013-11-02 23:48:00,
2013-11-02 18:53:00,52.2,37.0,30.18,NW,306,1.0,2.3,56,0.00,CLR,,0.00,0.0,WeatherDisplay:10.37,2013-11-02 23:53:00,
2013-11-02 18:58:00,51.7,37.4,30.18,NW,306,0.7,1.3,58,0.00,CLR,,0.00,0.0,WeatherDisplay:10.37,2013-11-02 23:58:00,
2013-11-02 19:03:00,51.1,37.3,30.18,NW,306,0.8,1.3,59,0.00,CLR,,0.00,0.0,WeatherDisplay:10.37,2013-11-03 00:03:00,
2013-11-02 19:08:00,50.8,37.4,30.18,NW,306,2.0,2.3,60,0.00,CLR,,0.00,0.0,WeatherDisplay:10.37,2013-11-03 00:08:00,
2013-11-02 19:13:00,50.5,37.5,30.18,NW,306,1.1,2.3,61,0.00,CLR,,0.00,0.0,WeatherDisplay:10.37,2013-11-03 00:13:00,
2013-11-02 19:18:00,50.2,37.7,30.18,NW,306,1.1,1.3,62,0.00,CLR,,0.00,0.0,WeatherDisplay:10.37,2013-11-03 00:18:00,
2013-11-02 19:23:00,49.9,37.8,30.18,NW,306,0.2,1.3,63,0.00,CLR,,0.00,0.0,WeatherDisplay:10.37,2013-11-03 00:23:00,
2013-11-02 19:28:00,49.5,38.2,30.19,NW,306,0.4,1.2,65,0.00,CLR,,0.00,0.0,WeatherDisplay:10.37,2013-11-03 00:28:00,
2013-11-02 19:33:00,48.8,39.1,30.19,NW,306,0.0,0.0,69,0.00,CLR,,0.00,0.0,WeatherDisplay:10.37,2013-11-03 00:33:00,
2013-11-02 19:38:00,47.6,39.0,30.19,NW,306,0.0,0.0,72,0.00,CLR,,0.00,0.0,WeatherDisplay:10.37,2013-11-03 00:38:00,
2013-11-02 19:43:00,46.8,38.6,30.19,NW,306,0.0,0.0,73,0.00,CLR,,0.00,0.0,WeatherDisplay:10.37,2013-11-03 00:43:00,
2013-11-02 19:48:00,46.4,38.2,30.19,NW,306,0.3,1.3,73,0.00,CLR,,0.00,0.0,WeatherDisplay:10.37,2013-11-03 00:48:00,
2013-11-02 19:53:00,46.1,38.3,30.20,NW,306,0.0,0.0,74,0.00,CLR,,0.00,0.0,WeatherDisplay:10.37,2013-11-03 00:53:00,
2013-11-02 19:58:00,45.5,38.4,30.20,NW,306,0.0,0.0,76,0.00,CLR,,0.00,0.0,WeatherDisplay:10.37,2013-11-03 00:58:00,
2013-11-02 20:03:00,45.1,38.0,30.20,NW,306,0.0,0.0,76,0.00,CLR,,0.00,0.0,WeatherDisplay:10.37,2013-11-03 01:03:00,
2013-11-02 20:08:00,44.5,38.1,30.20,NW,306,0.0,0.0,78,0.00,CLR,,0.00,0.0,WeatherDisplay:10.37,2013-11-03 01:08:00,
2013-11-02 20:13:00,44.5,38.4,30.20,NW,306,0.0,0.0,79,0.00,CLR,,0.00,0.0,WeatherDisplay:10.37,2013-11-03 01:13:00,
2013-11-02 20:18:00,44.6,38.5,30.21,NW,306,0.0,0.0,79,0.00,CLR,,0.00,0.0,WeatherDisplay:10.37,2013-11-03 01:18:00,
2013-11-02 20:23:00,44.6,38.8,30.21,NW,306,0.0,0.0,80,0.00,CLR,,0.00,0.0,WeatherDisplay:10.37,2013-11-03 01:23:00,
2013-11-02 20:28:00,44.6,38.2,30.21,NW,306,0.0,0.0,78,0.00,CLR,,0.00,0.0,WeatherDisplay:10.37,2013-11-03 01:28:00,
2013-11-02 20:33:00,44.4,38.3,30.21,NW,306,0.0,0.0,79,0.00,CLR,,0.00,0.0,WeatherDisplay:10.37,2013-11-03 01:33:00,
2013-11-02 20:38:00,44.1,38.3,30.21,NW,306,0.0,0.0,80,0.00,CLR,,0.00,0.0,WeatherDisplay:10.37,2013-11-03 01:38:00,
2013-11-02 20:43:00,43.8,38.7,30.21,NW,306,0.0,0.0,82,0.00,CLR,,0.00,0.0,WeatherDisplay:10.37,2013-11-03 01:43:00,
2013-11-02 20:48:00,43.3,38.5,30.21,NW,306,0.0,0.0,83,0.00,CLR,,0.00,0.0,WeatherDisplay:10.37,2013-11-03 01:48:00,
2013-11-02 20:53:00,43.0,38.2,30.21,NW,306,0.0,0.0,83,0.00,CLR,,0.00,0.0,WeatherDisplay:10.37,2013-11-03 01:53:00,
2013-11-02 20:58:00,42.7,37.9,30.21,NW,306,0.0,0.0,83,0.00,CLR,,0.00,0.0,WeatherDisplay:10.37,2013-11-03 01:58:00,
2013-11-02 21:03:00,42.0,37.5,30.21,NW,306,0.0,0.0,84,0.00,CLR,,0.00,0.0,WeatherDisplay:10.37,2013-11-03 02:03:00,
2013-11-02 21:08:00,42.0,37.8,30.22,NW,306,0.0,0.0,85,0.00,CLR,,0.00,0.0,WeatherDisplay:10.37,2013-11-03 02:08:00,
2013-11-02 21:13:00,41.7,37.5,30.22,NW,306,0.0,0.0,85,0.00,CLR,,0.00,0.0,WeatherDisplay:10.37,2013-11-03 02:13:00,
2013-11-02 21:18:00,41.8,37.9,30.22,NW,306,0.0,0.0,86,0.00,CLR,,0.00,0.0,WeatherDisplay:10.37,2013-11-03 02:18:00,
2013-11-02 21:23:00,41.9,38.0,30.22,NW,306,0.0,0.0,86,0.00,CLR,,0.00,0.0,WeatherDisplay:10.37,2013-11-03 02:23:00,
2013-11-02 21:28:00,41.7,37.8,30.22,NW,306,0.0,0.0,86,0.00,CLR,,0.00,0.0,WeatherDisplay:10.37,2013-11-03 02:28:00,
2013-11-02 21:33:00,41.4,37.5,30.22,NW,306,0.0,0.0,86,0.00,CLR,,0.00,0.0,WeatherDisplay:10.37,2013-11-03 02:33:00,
2013-11-02 21:38:00,40.9,37.0,30.22,NW,306,0.0,0.0,86,0.00,CLR,,0.00,0.0,WeatherDisplay:10.37,2013-11-03 02:38:00,
2013-11-02 21:43:00,40.7,37.1,30.23,NW,306,0.0,0.0,87,0.00,CLR,,0.00,0.0,WeatherDisplay:10.37,2013-11-03 02:43:00,
2013-11-02 21:48:00,40.3,37.0,30.23,NW,306,0.0,0.0,88,0.00,CLR,,0.00,0.0,WeatherDisplay:10.37,2013-11-03 02:48:00,
2013-11-02 21:53:00,39.9,36.6,30.23,NW,306,0.0,0.0,88,0.00,CLR,,0.00,0.0,WeatherDisplay:10.37,2013-11-03 02:53:00,
2013-11-02 21:58:00,39.9,36.9,30.23,NW,306,0.0,0.0,89,0.00,CLR,,0.00,0.0,WeatherDisplay:10.37,2013-11-03 02:58:00,
2013-11-02 22:03:00,39.8,36.8,30.23,NW,306,0.0,0.0,89,0.00,CLR,,0.00,0.0,WeatherDisplay:10.37,2013-11-03 03:03:00,
2013-11-02 22:08:00,40.0,37.3,30.23,NW,306,0.0,0.0,90,0.00,CLR,,0.00,0.0,WeatherDisplay:10.37,2013-11-03 03:08:00,
2013-11-02 22:13:00,40.1,37.4,30.23,NW,306,0.0,0.0,90,0.00,CLR,,0.00,0.0,WeatherDisplay:10.37,2013-11-03 03:13:00,
2013-11-02 22:18:00,40.0,37.3,30.23,NW,306,0.0,0.0,90,0.00,CLR,,0.00,0.0,WeatherDisplay:10.37,2013-11-03 03:18:00,
2013-11-02 22:23:00,39.8,37.1,30.24,NW,306,0.0,0.0,90,0.00,CLR,,0.00,0.0,WeatherDisplay:10.37,2013-11-03 03:23:00,
2013-11-02 22:28:00,39.7,37.0,30.24,NW,306,0.0,0.0,90,0.00,CLR,,0.00,0.0,WeatherDisplay:10.37,2013-11-03 03:28:00,
2013-11-02 22:33:00,39.3,36.6,30.24,NW,306,0.0,0.0,90,0.00,CLR,,0.00,0.0,WeatherDisplay:10.37,2013-11-03 03:33:00,
2013-11-02 22:38:00,39.0,36.3,30.24,NW,306,0.0,0.0,90,0.00,CLR,,0.00,0.0,WeatherDisplay:10.37,2013-11-03 03:38:00,
2013-11-02 22:43:00,39.0,36.3,30.24,NW,306,0.0,0.0,90,0.00,CLR,,0.00,0.0,WeatherDisplay:10.37,2013-11-03 03:43:00,
2013-11-02 22:48:00,38.7,36.0,30.24,NW,306,0.0,0.0,90,0.00,CLR,,0.00,0.0,WeatherDisplay:10.37,2013-11-03 03:48:00,
2013-11-02 22:53:00,38.8,36.4,30.24,NW,306,0.0,0.0,91,0.00,CLR,,0.00,0.0,WeatherDisplay:10.37,2013-11-03 03:53:00,
2013-11-02 22:58:00,38.7,36.3,30.24,NW,306,0.0,0.0,91,0.00,CLR,,0.00,0.0,WeatherDisplay:10.37,2013-11-03 03:58:00,
2013-11-02 23:01:00,38.6,36.2,30.24,NW,306,0.0,0.0,91,0.00,CLR,,0.00,0.0,WeatherDisplay:10.37,2013-11-03 04:01:00,
2013-11-02 23:02:00,38.5,36.1,30.24,NW,306,0.0,0.0,91,0.00,CLR,,0.00,0.0,WeatherDisplay:10.37,2013-11-03 04:02:00,
2013-11-02 23:03:00,38.5,36.1,30.24,NW,306,0.0,0.0,91,0.00,CLR,,0.00,0.0,WeatherDisplay:10.37,2013-11-03 04:03:00,
2013-11-02 23:08:00,38.5,36.1,30.23,NW,306,0.0,0.0,91,0.00,CLR,,0.00,0.0,WeatherDisplay:10.37,2013-11-03 04:08:00,
2013-11-02 23:13:00,38.2,35.8,30.23,NW,306,0.0,0.0,91,0.00,CLR,,0.00,0.0,WeatherDisplay:10.37,2013-11-03 04:13:00,
2013-11-02 23:18:00,38.2,35.8,30.23,NW,306,0.0,0.0,91,0.00,CLR,,0.00,0.0,WeatherDisplay:10.37,2013-11-03 04:18:00,
2013-11-02 23:23:00,38.2,35.8,30.23,NW,306,0.0,0.0,91,0.00,CLR,,0.00,0.0,WeatherDisplay:10.37,2013-11-03 04:23:00,
2013-11-02 23:28:00,38.1,35.7,30.23,NW,306,0.0,0.0,91,0.00,CLR,,0.00,0.0,WeatherDisplay:10.37,2013-11-03 04:28:00,
2013-11-02 23:33:00,37.9,35.5,30.23,NW,306,0.0,0.0,91,0.00,CLR,,0.00,0.0,WeatherDisplay:10.37,2013-11-03 04:33:00,
2013-11-02 23:38:00,37.7,35.3,30.23,NW,306,0.0,0.0,91,0.00,CLR,,0.00,0.0,WeatherDisplay:10.37,2013-11-03 04:38:00,
2013-11-02 23:43:00,37.8,35.7,30.23,NW,306,0.0,0.0,92,0.00,CLR,,0.00,0.0,WeatherDisplay:10.37,2013-11-03 04:43:00,
2013-11-02 23:48:00,37.8,35.7,30.23,NW,306,0.0,0.0,92,0.00,CLR,,0.00,0.0,WeatherDisplay:10.37,2013-11-03 04:48:00,
2013-11-02 23:53:00,37.6,35.5,30.23,NW,306,0.0,0.0,92,0.00,CLR,,0.00,0.0,WeatherDisplay:10.37,2013-11-03 04:53:00,
2013-11-02 23:58:00,37.3,34.9,30.23,NW,306,0.0,0.0,91,0.00,CLR,,0.00,0.0,WeatherDisplay:10.37,2013-11-03 04:58:00,